Time;durP1;ratioP1;P1;durP2;ratioP2;P2;SDS_P1;SDS_P2;PMS_P1;PMS_P2;Temp;Humidity;BMP_temperature;BMP_pressure;BME280_temperature;BME280_humidity;BME280_pressure;Samples;Min_cycle;Max_cycle;Signal;HPM_P1;HPM_P2
2024/01/09 00:01:20;;;;;;;36.33;26.17;;;14.10;99.90;;;;;;4595772;19;20429;-77
2024/01/09 00:02:56;;;;;;;37.13;25.90;;;14.10;99.90;;;;;;4595731;19;20514;-77
2024/01/09 00:04:30;;;;;;;37.50;24.97;;;14.10;99.90;;;;;;4595625;19;20463;-77
2024/01/09 00:06:04;;;;;;;36.63;25.27;;;14.20;99.90;;;;;;4594392;19;20335;-77
2024/01/09 00:07:40;;;;;;;39.97;26.20;;;14.20;99.90;;;;;;4595159;19;20409;-77
2024/01/09 00:09:14;;;;;;;35.33;23.90;;;14.20;99.90;;;;;;4595933;19;20405;-77
2024/01/09 00:10:48;;;;;;;38.20;24.87;;;14.20;99.90;;;;;;4595653;19;20389;-77
2024/01/09 00:12:23;;;;;;;39.37;26.00;;;14.20;99.90;;;;;;4594300;19;20939;-77
2024/01/09 00:13:57;;;;;;;38.53;25.87;;;14.20;99.90;;;;;;4594245;19;20393;-77
2024/01/09 00:15:31;;;;;;;35.90;23.77;;;14.20;99.90;;;;;;4593573;19;21062;-77
2024/01/09 00:17:07;;;;;;;39.67;26.27;;;14.20;99.90;;;;;;4594116;19;20522;-76
2024/01/09 00:18:40;;;;;;;36.77;24.80;;;14.30;99.90;;;;;;4595379;19;20397;-77
2024/01/09 00:20:14;;;;;;;37.60;25.27;;;14.30;99.90;;;;;;4595474;19;20389;-77
2024/01/09 00:21:50;;;;;;;36.50;24.97;;;14.30;99.90;;;;;;4595424;19;20397;-77
2024/01/09 00:23:25;;;;;;;37.10;24.83;;;14.30;99.90;;;;;;4594388;19;20007;-77
2024/01/09 00:25:00;;;;;;;36.27;25.10;;;14.30;99.90;;;;;;4595063;19;20514;-77
2024/01/09 00:26:44;;;;;;;35.77;23.80;;;14.30;99.90;;;;;;4595903;19;19999;-77
2024/01/09 00:28:19;;;;;;;37.40;25.07;;;14.30;99.90;;;;;;4592929;19;20413;-77
2024/01/09 00:29:53;;;;;;;34.47;23.73;;;14.30;99.90;;;;;;4595185;19;20433;-78
2024/01/09 00:31:29;;;;;;;37.27;24.93;;;14.30;99.90;;;;;;4595420;19;20013;-77
2024/01/09 00:33:03;;;;;;;36.40;25.07;;;14.30;99.90;;;;;;4595281;19;20002;-77
2024/01/09 00:34:37;;;;;;;37.63;25.80;;;14.30;99.90;;;;;;4595133;19;20022;-77
2024/01/09 00:36:12;;;;;;;34.67;24.10;;;14.30;99.90;;;;;;4592676;19;20010;-77
2024/01/09 00:37:46;;;;;;;35.00;24.07;;;14.40;99.90;;;;;;4594729;19;20450;-77
2024/01/09 00:39:21;;;;;;;34.83;22.80;;;14.30;99.90;;;;;;4595116;19;20006;-77
2024/01/09 00:40:56;;;;;;;36.53;24.50;;;14.40;99.90;;;;;;4593905;19;20078;-76
2024/01/09 00:42:30;;;;;;;35.27;24.10;;;14.40;99.90;;;;;;4594708;19;20426;-77
2024/01/09 00:44:05;;;;;;;34.93;23.23;;;14.40;99.90;;;;;;4595306;19;20436;-77
2024/01/09 00:45:42;;;;;;;35.73;24.30;;;14.40;99.90;;;;;;4594252;19;20083;-77
2024/01/09 00:47:17;;;;;;;35.07;23.37;;;14.40;99.90;;;;;;4595003;19;20403;-77
2024/01/09 00:48:51;;;;;;;34.83;23.70;;;14.40;99.90;;;;;;4593387;19;20732;-77
2024/01/09 00:50:26;;;;;;;34.07;23.40;;;14.40;99.90;;;;;;4593640;19;20014;-77
2024/01/09 00:52:00;;;;;;;32.73;22.90;;;14.40;99.90;;;;;;4594470;19;20424;-77
2024/01/09 00:53:34;;;;;;;35.03;23.33;;;14.40;99.90;;;;;;4594823;19;20006;-77
2024/01/09 00:55:10;;;;;;;36.67;24.87;;;14.40;99.90;;;;;;4592986;19;20066;-77
2024/01/09 00:56:45;;;;;;;33.33;22.27;;;14.40;99.90;;;;;;4595071;19;20058;-77
2024/01/09 00:58:20;;;;;;;34.77;22.83;;;14.40;99.90;;;;;;4594747;19;20405;-77
2024/01/09 00:59:55;;;;;;;34.30;24.00;;;14.50;99.90;;;;;;4593361;19;20399;-77
2024/01/09 01:15:03;;;;;;;31.63;21.90;;;14.50;99.90;;;;;;4555681;19;20520;-76
2024/01/09 01:16:38;;;;;;;33.50;23.03;;;14.50;99.90;;;;;;4594295;19;20381;-76
2024/01/09 01:18:12;;;;;;;33.40;21.80;;;14.50;99.90;;;;;;4594444;19;20010;-77
2024/01/09 01:19:46;;;;;;;30.97;21.13;;;14.50;99.90;;;;;;4594370;19;20087;-76
2024/01/09 01:21:21;;;;;;;32.27;22.77;;;14.50;99.90;;;;;;4594389;19;20024;-77
2024/01/09 01:22:55;;;;;;;29.73;21.53;;;14.50;99.90;;;;;;4592992;19;19999;-76
2024/01/09 01:24:30;;;;;;;33.27;21.23;;;14.50;99.90;;;;;;4593913;19;19995;-76
2024/01/09 01:26:06;;;;;;;29.00;20.60;;;14.50;99.90;;;;;;4591519;19;20010;-76
2024/01/09 01:27:43;;;;;;;29.97;21.00;;;14.50;99.90;;;;;;4593523;19;20389;-76
2024/01/09 01:29:18;;;;;;;31.63;21.20;;;14.50;99.90;;;;;;4594030;19;20006;-77
2024/01/09 01:30:54;;;;;;;32.77;21.57;;;14.60;99.90;;;;;;4594412;19;20363;-77
2024/01/09 01:32:28;;;;;;;28.53;19.90;;;14.50;99.90;;;;;;4594393;19;20007;-76
2024/01/09 01:34:02;;;;;;;29.50;19.90;;;14.60;99.90;;;;;;4593952;19;20018;-77
2024/01/09 01:35:37;;;;;;;29.07;19.10;;;14.60;99.90;;;;;;4593319;19;20025;-76
2024/01/09 01:37:12;;;;;;;31.33;20.50;;;14.60;99.90;;;;;;4594170;19;20005;-76
2024/01/09 01:38:45;;;;;;;31.43;21.90;;;14.60;99.90;;;;;;4594170;19;20003;-76
2024/01/09 01:40:21;;;;;;;30.67;19.77;;;14.60;99.90;;;;;;4593787;19;20011;-77
2024/01/09 01:41:56;;;;;;;27.73;19.80;;;14.60;99.90;;;;;;4592399;19;20018;-76
2024/01/09 01:43:29;;;;;;;30.63;20.23;;;14.60;99.90;;;;;;4592730;19;20002;-76
2024/01/09 01:45:17;;;;;;;31.27;20.17;;;14.60;99.90;;;;;;4593087;19;20006;-76
2024/01/09 01:46:51;;;;;;;33.60;21.10;;;14.60;99.90;;;;;;4592538;19;19998;-77
2024/01/09 01:48:25;;;;;;;31.83;21.27;;;14.60;99.90;;;;;;4592453;19;20322;-76
2024/01/09 01:50:00;;;;;;;32.93;22.83;;;14.60;99.90;;;;;;4593665;19;20003;-76
2024/01/09 01:51:34;;;;;;;32.83;21.47;;;14.60;99.90;;;;;;4593593;19;20385;-76
2024/01/09 01:53:08;;;;;;;32.23;21.50;;;14.60;99.90;;;;;;4593517;19;20006;-77
2024/01/09 01:54:43;;;;;;;30.90;21.20;;;14.60;99.90;;;;;;4593758;19;20358;-76
2024/01/09 01:56:17;;;;;;;30.27;20.37;;;14.60;99.90;;;;;;4593481;19;20007;-76
2024/01/09 01:57:51;;;;;;;29.60;21.30;;;14.50;99.90;;;;;;4593803;19;19998;-77
2024/01/09 01:59:29;;;;;;;28.07;19.23;;;14.50;99.90;;;;;;4592472;19;20099;-77
2024/01/09 02:01:04;;;;;;;26.80;18.53;;;14.50;99.90;;;;;;4592251;19;20007;-76
2024/01/09 02:02:38;;;;;;;28.30;19.07;;;14.50;99.90;;;;;;4592096;19;20003;-77
2024/01/09 02:04:13;;;;;;;30.03;20.50;;;14.50;99.90;;;;;;4592196;19;20552;-76
2024/01/09 02:05:48;;;;;;;31.33;18.90;;;14.50;99.90;;;;;;4591249;19;20026;-76
2024/01/09 02:07:22;;;;;;;27.67;19.03;;;14.50;99.90;;;;;;4593009;19;20006;-76
2024/01/09 02:08:58;;;;;;;25.23;18.23;;;14.50;99.90;;;;;;4591168;19;20006;-76
2024/01/09 02:10:33;;;;;;;30.40;19.40;;;14.50;99.90;;;;;;4592857;19;20015;-76
2024/01/09 02:12:07;;;;;;;25.73;18.00;;;14.50;99.90;;;;;;4591952;19;20013;-76
2024/01/09 02:13:42;;;;;;;27.67;18.87;;;14.50;99.90;;;;;;4592886;19;20026;-76
2024/01/09 02:15:16;;;;;;;27.50;18.37;;;14.50;99.90;;;;;;4592570;19;20021;-77
2024/01/09 02:16:50;;;;;;;27.80;18.93;;;14.50;99.90;;;;;;4591877;19;20466;-76
2024/01/09 02:18:26;;;;;;;28.43;18.33;;;14.50;99.90;;;;;;4593101;19;20006;-76
2024/01/09 02:20:00;;;;;;;28.70;18.57;;;14.50;99.90;;;;;;4591746;19;20005;-76
2024/01/09 02:21:34;;;;;;;27.23;17.93;;;14.50;99.90;;;;;;4592952;19;20287;-76
2024/01/09 02:23:11;;;;;;;25.57;18.07;;;14.60;99.90;;;;;;4593097;19;20073;-76
2024/01/09 02:24:46;;;;;;;25.97;17.40;;;14.50;99.90;;;;;;4592824;19;19999;-76
2024/01/09 02:26:21;;;;;;;25.40;17.10;;;14.60;99.90;;;;;;4592898;19;20003;-76
2024/01/09 02:27:58;;;;;;;25.57;18.00;;;14.60;99.90;;;;;;4591570;19;20002;-76
2024/01/09 02:29:32;;;;;;;26.53;18.67;;;14.60;99.90;;;;;;4591780;19;20016;-76
2024/01/09 02:31:06;;;;;;;25.37;17.60;;;14.60;99.90;;;;;;4591816;19;20512;-76
2024/01/09 02:32:41;;;;;;;25.73;18.80;;;14.60;99.90;;;;;;4592823;19;20006;-77
2024/01/09 02:36:47;;;;;;;24.40;16.23;;;14.60;99.90;;;;;;4592981;19;20454;-76
2024/01/09 02:38:22;;;;;;;26.17;16.37;;;14.60;99.90;;;;;;4591716;19;20445;-76
2024/01/09 02:40:02;;;;;;;24.07;16.60;;;14.60;99.90;;;;;;4592562;19;20003;-76
2024/01/09 02:41:40;;;;;;;27.35;17.58;;;14.60;99.90;;;;;;4591499;19;20006;-76
2024/01/09 02:43:14;;;;;;;23.50;16.33;;;14.60;99.90;;;;;;4591378;19;20311;-76
2024/01/09 02:44:53;;;;;;;23.23;16.40;;;14.60;99.90;;;;;;4592312;19;20395;-76
2024/01/09 02:46:28;;;;;;;23.00;15.87;;;14.60;99.90;;;;;;4592604;19;20438;-77
2024/01/09 02:48:03;;;;;;;23.03;16.10;;;14.60;99.90;;;;;;4592039;19;20006;-76
2024/01/09 02:49:37;;;;;;;22.60;16.57;;;14.60;99.90;;;;;;4592739;19;20335;-77
2024/01/09 02:51:12;;;;;;;24.03;16.83;;;14.60;99.90;;;;;;4592459;19;20015;-75
2024/01/09 02:52:46;;;;;;;23.57;15.63;;;14.60;99.90;;;;;;4592507;19;20013;-76
2024/01/09 02:54:20;;;;;;;25.53;16.90;;;14.70;99.90;;;;;;4592482;19;20005;-76
2024/01/09 02:55:55;;;;;;;23.13;15.77;;;14.60;99.90;;;;;;4589918;19;20014;-76
2024/01/09 02:57:29;;;;;;;22.33;15.53;;;14.60;99.90;;;;;;4592270;19;20002;-77
2024/01/09 02:59:03;;;;;;;24.40;16.30;;;14.60;99.90;;;;;;4592608;19;20299;-76
2024/01/09 03:00:38;;;;;;;24.13;15.97;;;14.60;99.90;;;;;;4591092;19;20010;-76
2024/01/09 03:02:12;;;;;;;24.17;16.30;;;14.60;99.90;;;;;;4591189;19;20006;-76
2024/01/09 03:03:48;;;;;;;24.20;16.70;;;14.60;99.90;;;;;;4592029;19;20086;-76
2024/01/09 03:05:23;;;;;;;24.33;15.50;;;14.60;99.90;;;;;;4590591;19;20085;-76
2024/01/09 03:06:57;;;;;;;26.87;16.33;;;14.70;99.90;;;;;;4592157;19;20007;-77
2024/01/09 03:08:31;;;;;;;22.87;15.90;;;14.70;99.90;;;;;;4591691;19;20019;-76
2024/01/09 03:10:07;;;;;;;26.33;17.60;;;14.70;99.90;;;;;;4592154;19;20012;-76
2024/01/09 03:11:40;;;;;;;24.47;16.40;;;14.70;99.90;;;;;;4592399;19;20324;-76
2024/01/09 03:13:14;;;;;;;24.07;15.97;;;14.70;99.90;;;;;;4592405;19;20002;-76
2024/01/09 03:14:49;;;;;;;24.03;15.50;;;14.70;99.90;;;;;;4591948;19;20006;-76
2024/01/09 03:16:23;;;;;;;23.37;15.20;;;14.70;99.90;;;;;;4592436;19;20025;-76
2024/01/09 03:18:03;;;;;;;21.93;15.00;;;14.70;99.90;;;;;;4591467;19;19999;-76
2024/01/09 03:19:38;;;;;;;22.03;15.97;;;14.70;99.90;;;;;;4592391;19;20007;-76
2024/01/09 03:21:12;;;;;;;20.50;15.07;;;14.70;99.90;;;;;;4591912;19;20022;-76
2024/01/09 03:22:46;;;;;;;22.43;15.60;;;14.70;99.90;;;;;;4591991;19;20006;-76
2024/01/09 03:24:21;;;;;;;23.67;15.80;;;14.70;99.90;;;;;;4592263;19;20006;-76
2024/01/09 03:25:57;;;;;;;20.73;15.30;;;14.70;99.90;;;;;;4590851;19;20372;-76
2024/01/09 03:27:31;;;;;;;22.60;14.63;;;14.70;99.90;;;;;;4592098;19;20013;-76
2024/01/09 03:29:07;;;;;;;23.90;15.60;;;14.70;99.90;;;;;;4591922;19;20007;-76
2024/01/09 03:30:41;;;;;;;21.63;15.37;;;14.70;99.90;;;;;;4590766;19;20029;-76
2024/01/09 03:32:15;;;;;;;20.30;14.90;;;14.70;99.90;;;;;;4591414;19;19999;-77
2024/01/09 03:33:50;;;;;;;21.20;16.13;;;14.70;99.90;;;;;;4592105;19;20007;-76
2024/01/09 03:35:24;;;;;;;21.97;15.60;;;14.70;99.90;;;;;;4589801;19;20079;-76
2024/01/09 03:36:58;;;;;;;20.43;14.40;;;14.70;99.90;;;;;;4590377;19;20363;-76
2024/01/09 03:38:33;;;;;;;21.47;15.27;;;14.70;99.90;;;;;;4591390;19;20003;-76
2024/01/09 03:40:08;;;;;;;23.37;14.63;;;14.70;99.90;;;;;;4591936;19;20018;-77
2024/01/09 03:41:42;;;;;;;20.40;14.20;;;14.70;99.90;;;;;;4590288;19;20011;-77
2024/01/09 03:43:18;;;;;;;22.73;15.20;;;14.80;99.90;;;;;;4590382;19;20022;-76
2024/01/09 03:44:53;;;;;;;23.53;15.47;;;14.80;99.90;;;;;;4591241;19;20010;-77
2024/01/09 03:46:27;;;;;;;21.90;14.10;;;14.70;99.90;;;;;;4590073;19;20458;-76
2024/01/09 03:48:03;;;;;;;20.17;13.93;;;14.80;99.90;;;;;;4590788;19;20007;-76
2024/01/09 03:49:37;;;;;;;22.23;14.40;;;14.70;99.90;;;;;;4591502;19;20002;-76
2024/01/09 03:51:11;;;;;;;21.73;14.80;;;14.70;99.90;;;;;;4591512;19;19998;-76
2024/01/09 03:52:46;;;;;;;22.53;14.87;;;14.80;99.90;;;;;;4591556;19;20017;-77
2024/01/09 03:54:21;;;;;;;21.70;14.57;;;14.80;99.90;;;;;;4591678;19;20505;-76
2024/01/09 03:55:56;;;;;;;22.60;15.67;;;14.80;99.90;;;;;;4590299;19;20007;-76
2024/01/09 03:57:31;;;;;;;23.40;15.73;;;14.80;99.90;;;;;;4591496;19;19999;-76
2024/01/09 03:59:05;;;;;;;24.67;15.77;;;14.80;99.90;;;;;;4591606;19;20336;-76
2024/01/09 04:00:39;;;;;;;22.10;14.60;;;14.80;99.90;;;;;;4591261;19;20007;-76
2024/01/09 04:02:14;;;;;;;20.97;15.20;;;14.70;99.90;;;;;;4591281;19;20062;-76
2024/01/09 04:03:48;;;;;;;22.83;15.23;;;14.70;99.90;;;;;;4589932;19;20375;-76
2024/01/09 04:05:22;;;;;;;21.23;14.20;;;14.70;99.90;;;;;;4590099;19;20407;-76
2024/01/09 04:06:57;;;;;;;20.37;14.00;;;14.70;99.90;;;;;;4591594;19;20006;-76
2024/01/09 04:08:32;;;;;;;18.93;14.07;;;14.70;99.90;;;;;;4590366;19;20007;-76
2024/01/09 04:10:07;;;;;;;21.47;14.80;;;14.70;99.90;;;;;;4591483;19;20006;-76
2024/01/09 04:11:45;;;;;;;19.50;14.00;;;14.70;99.90;;;;;;4591494;19;20039;-76
2024/01/09 04:13:21;;;;;;;18.47;13.27;;;14.70;99.90;;;;;;4591189;19;20002;-76
2024/01/09 04:14:55;;;;;;;21.03;14.10;;;14.70;99.90;;;;;;4589021;19;20320;-76
2024/01/09 04:16:31;;;;;;;21.40;15.10;;;14.70;99.90;;;;;;4589820;19;20007;-77
2024/01/09 04:18:06;;;;;;;20.17;14.03;;;14.70;99.90;;;;;;4590708;19;20042;-76
2024/01/09 04:19:41;;;;;;;21.37;14.23;;;14.70;99.90;;;;;;4590987;19;20007;-77
2024/01/09 04:21:16;;;;;;;20.13;13.97;;;14.70;99.90;;;;;;4591066;19;20009;-76
2024/01/09 04:22:50;;;;;;;20.03;13.77;;;14.70;99.90;;;;;;4590940;19;20002;-76
2024/01/09 04:24:24;;;;;;;18.53;13.20;;;14.70;99.90;;;;;;4590922;19;20009;-77
2024/01/09 04:26:00;;;;;;;18.30;13.67;;;14.70;99.90;;;;;;4589686;19;20009;-76
2024/01/09 04:27:34;;;;;;;21.57;14.53;;;14.70;99.90;;;;;;4589759;19;20006;-76
2024/01/09 04:29:08;;;;;;;17.30;12.13;;;14.70;99.90;;;;;;4590393;19;20007;-76
2024/01/09 04:30:43;;;;;;;18.27;12.47;;;14.70;99.90;;;;;;4592911;19;20007;-76
2024/01/09 04:32:17;;;;;;;20.17;14.10;;;14.70;99.90;;;;;;4595355;19;20002;-77
2024/01/09 04:33:52;;;;;;;20.70;14.07;;;14.80;99.90;;;;;;4595341;19;20030;-76
2024/01/09 04:35:28;;;;;;;21.40;13.20;;;14.70;99.90;;;;;;4594681;19;20024;-76
2024/01/09 04:37:02;;;;;;;18.80;12.43;;;14.80;99.90;;;;;;4595222;19;20003;-76
2024/01/09 04:38:37;;;;;;;20.50;14.47;;;14.80;99.90;;;;;;4595208;19;20005;-76
2024/01/09 04:40:13;;;;;;;20.80;14.67;;;14.80;99.90;;;;;;4595158;19;20054;-76
2024/01/09 04:41:47;;;;;;;18.90;13.03;;;14.80;99.90;;;;;;4595066;19;20007;-76
2024/01/09 04:43:21;;;;;;;20.57;13.67;;;14.80;99.90;;;;;;4595429;19;20026;-76
2024/01/09 04:44:56;;;;;;;20.17;14.23;;;14.80;99.90;;;;;;4594736;19;20003;-76
2024/01/09 04:46:32;;;;;;;18.63;13.27;;;15.00;99.90;;;;;;4593771;19;20288;-76
2024/01/09 04:48:07;;;;;;;19.80;13.37;;;15.20;99.90;;;;;;4594357;19;19999;-77
2024/01/09 04:49:47;;;;;;;19.43;13.53;;;15.50;99.90;;;;;;4595116;19;20006;-76
2024/01/09 04:51:21;;;;;;;19.37;12.83;;;15.70;99.90;;;;;;4595229;19;20074;-76
2024/01/09 04:52:55;;;;;;;18.58;12.32;;;16.00;99.90;;;;;;4593574;19;20371;-77
2024/01/09 04:54:31;;;;;;;17.02;12.52;;;16.20;99.90;;;;;;4594663;19;20023;-76
2024/01/09 04:56:06;;;;;;;17.60;12.00;;;16.50;99.90;;;;;;4593281;19;20014;-76
2024/01/09 04:57:42;;;;;;;19.65;12.95;;;16.70;99.90;;;;;;4593455;19;20013;-77
2024/01/09 04:59:17;;;;;;;19.85;12.95;;;16.90;99.90;;;;;;4594842;19;20006;-74
2024/01/09 05:00:51;;;;;;;18.67;12.65;;;17.10;99.90;;;;;;4593455;19;20448;-79
2024/01/09 05:02:25;;;;;;;20.45;12.43;;;17.20;99.90;;;;;;4594393;19;20003;-76
2024/01/09 05:04:01;;;;;;;20.63;14.13;;;17.30;99.90;;;;;;4594744;19;20010;-76
2024/01/09 05:05:36;;;;;;;16.50;12.27;;;17.30;99.90;;;;;;4593643;19;20007;-76
2024/01/09 05:07:10;;;;;;;20.30;14.18;;;17.30;99.90;;;;;;4594921;19;20034;-77
2024/01/09 05:08:47;;;;;;;24.25;15.82;;;17.20;99.90;;;;;;4593530;19;20007;-77
2024/01/09 05:10:21;;;;;;;22.38;15.15;;;17.10;99.90;;;;;;4593194;19;20009;-77
2024/01/09 05:11:55;;;;;;;20.15;13.82;;;17.10;99.90;;;;;;4594456;19;20003;-77
2024/01/09 05:13:31;;;;;;;22.05;14.60;;;17.20;99.90;;;;;;4594452;19;20007;-76
2024/01/09 05:15:05;;;;;;;21.30;14.65;;;17.20;99.90;;;;;;4593643;19;20006;-76
2024/01/09 05:16:40;;;;;;;20.67;14.60;;;17.30;99.90;;;;;;4594438;19;20466;-77
2024/01/09 05:18:16;;;;;;;25.60;16.33;;;17.20;99.90;;;;;;4594495;19;20006;-76
2024/01/09 05:19:51;;;;;;;25.00;17.52;;;17.30;99.90;;;;;;4594374;19;20010;-76
2024/01/09 05:21:25;;;;;;;29.98;20.20;;;17.30;99.90;;;;;;4593238;19;20015;-77
2024/01/09 05:23:02;;;;;;;32.53;20.88;;;17.20;99.90;;;;;;4594295;19;20024;-77
2024/01/09 05:24:35;;;;;;;29.42;21.13;;;17.30;99.90;;;;;;4594267;19;20003;-77
2024/01/09 05:26:10;;;;;;;32.10;21.05;;;17.20;99.90;;;;;;4594165;19;19995;-76
2024/01/09 05:27:45;;;;;;;29.23;21.25;;;17.10;99.90;;;;;;4594033;19;20006;-76
2024/01/09 05:29:19;;;;;;;30.25;19.48;;;17.00;99.90;;;;;;4594156;19;20006;-77
2024/01/09 05:30:53;;;;;;;29.30;18.45;;;17.00;99.90;;;;;;4594100;19;20027;-77
2024/01/09 05:32:29;;;;;;;30.08;20.27;;;17.00;99.90;;;;;;4594109;19;20006;-76
2024/01/09 05:34:04;;;;;;;29.00;19.10;;;16.90;99.90;;;;;;4594067;19;19994;-77
2024/01/09 05:35:38;;;;;;;27.70;18.05;;;16.80;99.90;;;;;;4593232;19;20006;-76
2024/01/09 05:37:13;;;;;;;29.02;19.23;;;16.70;99.90;;;;;;4594076;19;20006;-76
2024/01/09 05:38:47;;;;;;;27.70;19.13;;;16.70;99.90;;;;;;4594164;19;19998;-76
2024/01/09 05:40:21;;;;;;;25.92;18.98;;;16.60;99.90;;;;;;4594174;19;20007;-76
2024/01/09 05:41:57;;;;;;;25.67;17.50;;;16.60;99.90;;;;;;4593187;19;20469;-77
2024/01/09 05:43:32;;;;;;;28.60;18.58;;;16.50;99.90;;;;;;4594101;19;20320;-77
2024/01/09 05:45:07;;;;;;;30.97;20.07;;;16.50;99.90;;;;;;4593299;19;20003;-77
2024/01/09 05:46:43;;;;;;;29.60;18.92;;;16.40;99.90;;;;;;4593877;19;20031;-77
2024/01/09 05:48:17;;;;;;;26.07;18.97;;;16.30;99.90;;;;;;4593162;19;20002;-76
2024/01/09 05:49:51;;;;;;;30.13;19.87;;;16.30;99.90;;;;;;4593753;19;20002;-76
2024/01/09 05:51:26;;;;;;;29.15;19.25;;;16.20;99.90;;;;;;4593952;19;20010;-77
2024/01/09 05:53:02;;;;;;;30.87;20.57;;;16.20;99.90;;;;;;4592418;19;20069;-77
2024/01/09 05:54:36;;;;;;;32.20;20.77;;;16.20;99.90;;;;;;4593357;19;20082;-79
2024/01/09 05:56:12;;;;;;;31.10;21.17;;;16.10;99.90;;;;;;4592330;19;20007;-76
2024/01/09 05:57:46;;;;;;;29.33;20.67;;;16.00;99.90;;;;;;4592203;19;20070;-79
2024/01/09 05:59:20;;;;;;;27.07;19.63;;;16.00;99.90;;;;;;4592302;19;20014;-76
2024/01/09 06:00:56;;;;;;;32.00;20.47;;;16.00;99.90;;;;;;4593640;19;20010;-77
2024/01/09 06:02:30;;;;;;;28.00;19.83;;;15.90;99.90;;;;;;4593457;19;20003;-77
2024/01/09 06:04:05;;;;;;;30.53;21.10;;;15.90;99.90;;;;;;4593377;19;20009;-77
2024/01/09 06:05:41;;;;;;;31.83;21.20;;;15.80;99.90;;;;;;4592798;19;20314;-77
2024/01/09 06:07:17;;;;;;;31.30;20.33;;;15.80;99.90;;;;;;4593434;19;20010;-77
2024/01/09 06:08:51;;;;;;;29.07;20.40;;;15.70;99.90;;;;;;4592378;19;19998;-76
2024/01/09 06:10:27;;;;;;;29.73;19.93;;;15.70;99.90;;;;;;4592071;19;20058;-76
2024/01/09 06:12:01;;;;;;;30.10;20.67;;;15.60;99.90;;;;;;4592872;19;20002;-77
2024/01/09 06:13:36;;;;;;;29.07;19.77;;;15.60;99.90;;;;;;4593126;19;20418;-77
2024/01/09 06:15:12;;;;;;;27.93;19.87;;;15.70;99.90;;;;;;4592382;19;20018;-76
2024/01/09 06:16:47;;;;;;;28.07;20.97;;;15.60;99.90;;;;;;4593122;19;20013;-77
2024/01/09 06:18:21;;;;;;;29.23;19.97;;;15.60;99.90;;;;;;4592966;19;20069;-76
2024/01/09 06:19:57;;;;;;;31.07;20.13;;;15.60;99.90;;;;;;4593128;19;20396;-77
2024/01/09 06:21:32;;;;;;;28.77;19.47;;;15.60;99.90;;;;;;4593249;19;20066;-76
2024/01/09 06:23:07;;;;;;;30.80;20.40;;;15.60;99.90;;;;;;4592984;19;20005;-78
2024/01/09 06:24:43;;;;;;;30.37;20.10;;;15.60;99.90;;;;;;4593130;19;20361;-77
2024/01/09 06:26:17;;;;;;;31.83;20.17;;;15.60;99.90;;;;;;4592892;19;20066;-77
2024/01/09 06:27:51;;;;;;;26.93;18.90;;;15.60;99.90;;;;;;4592736;19;19999;-78
2024/01/09 06:29:31;;;;;;;28.77;20.10;;;15.50;99.90;;;;;;4592896;19;20006;-77
2024/01/09 06:31:05;;;;;;;27.40;19.50;;;15.50;99.90;;;;;;4591816;19;20011;-79
2024/01/09 06:32:39;;;;;;;28.83;19.43;;;15.50;99.90;;;;;;4591777;19;20352;-77
2024/01/09 06:34:15;;;;;;;32.37;20.77;;;15.40;99.90;;;;;;4591824;19;20098;-78
2024/01/09 06:35:49;;;;;;;30.43;20.23;;;15.40;99.90;;;;;;4591452;19;20006;-79
2024/01/09 06:37:23;;;;;;;28.17;19.83;;;15.40;99.90;;;;;;4592804;19;20469;-78
2024/01/09 06:38:58;;;;;;;29.33;19.23;;;15.40;99.90;;;;;;4593020;19;20307;-78
2024/01/09 06:40:32;;;;;;;25.10;17.60;;;15.40;99.90;;;;;;4592703;19;20358;-78
2024/01/09 06:42:08;;;;;;;26.80;18.23;;;15.50;99.90;;;;;;4592585;19;20423;-78
2024/01/09 06:43:44;;;;;;;25.87;17.07;;;15.60;99.90;;;;;;4592715;19;20021;-78
2024/01/09 06:45:19;;;;;;;24.80;17.07;;;15.70;99.90;;;;;;4592236;19;20010;-78
2024/01/09 06:46:53;;;;;;;24.90;16.93;;;15.90;99.90;;;;;;4592514;19;20030;-78
2024/01/09 06:48:28;;;;;;;23.37;16.23;;;15.90;99.90;;;;;;4592010;19;20010;-78
2024/01/09 06:50:03;;;;;;;23.77;16.17;;;16.10;99.90;;;;;;4592511;19;20009;-78
2024/01/09 06:51:39;;;;;;;22.93;16.53;;;16.30;99.90;;;;;;4592546;19;20021;-78
2024/01/09 06:53:15;;;;;;;23.73;16.97;;;16.40;99.90;;;;;;4590808;19;20302;-78
2024/01/09 06:54:50;;;;;;;21.77;15.93;;;16.50;99.90;;;;;;4592379;19;19998;-79
2024/01/09 06:56:24;;;;;;;24.27;17.02;;;16.70;99.90;;;;;;4592675;19;20010;-79
2024/01/09 06:58:00;;;;;;;23.33;16.63;;;16.80;99.90;;;;;;4592322;19;20445;-79
2024/01/09 06:59:34;;;;;;;27.77;17.45;;;16.90;99.90;;;;;;4592594;19;19998;-79
2024/01/09 07:01:09;;;;;;;26.65;18.40;;;16.90;99.90;;;;;;4591192;19;20013;-78
2024/01/09 07:02:44;;;;;;;24.93;17.37;;;16.90;99.90;;;;;;4592139;19;20023;-78
2024/01/09 07:04:21;;;;;;;24.47;17.90;;;16.90;99.90;;;;;;4592107;19;20014;-78
2024/01/09 07:05:56;;;;;;;27.58;19.00;;;16.90;99.90;;;;;;4591504;19;20032;-79
2024/01/09 07:07:32;;;;;;;26.20;18.07;;;16.90;99.90;;;;;;4592271;19;20009;-78
2024/01/09 07:09:07;;;;;;;117.90;82.57;;;16.90;99.90;;;;;;4590069;19;20012;-76
2024/01/09 07:10:42;;;;;;;136.03;94.77;;;16.40;82.90;;;;;;4591699;19;20042;-76
2024/01/09 07:12:17;;;;;;;137.40;95.57;;;13.90;71.80;;;;;;4592293;19;20006;-76
2024/01/09 07:13:53;;;;;;;148.33;100.97;;;11.90;70.70;;;;;;4592240;19;20911;-76
2024/01/09 07:15:27;;;;;;;168.40;110.80;;;10.40;64.40;;;;;;4591059;19;20453;-77
2024/01/09 07:17:07;;;;;;;170.13;111.67;;;10.50;62.50;;;;;;4590991;19;20377;-76
2024/01/09 07:18:41;;;;;;;158.63;105.60;;;10.80;61.30;;;;;;4591741;19;20373;-76
2024/01/09 07:20:15;;;;;;;160.13;109.10;;;11.10;59.70;;;;;;4592155;19;20438;-77
2024/01/09 07:21:51;;;;;;;175.50;114.77;;;11.30;58.70;;;;;;4591983;19;20666;-77
2024/01/09 07:23:25;;;;;;;182.47;120.40;;;11.40;58.00;;;;;;4592090;19;20388;-76
2024/01/09 07:24:59;;;;;;;178.40;117.13;;;11.50;57.40;;;;;;4590230;19;20441;-77
2024/01/09 07:26:44;;;;;;;195.80;127.97;;;11.60;56.80;;;;;;4590553;19;20694;-75
2024/01/09 07:28:18;;;;;;;195.17;126.27;;;11.70;56.00;;;;;;4591174;19;20389;-76
2024/01/09 07:29:54;;;;;;;198.83;127.77;;;11.80;55.50;;;;;;4591841;19;20421;-75
2024/01/09 07:31:28;;;;;;;205.43;129.17;;;11.90;54.90;;;;;;4591767;19;20961;-75
2024/01/09 07:33:02;;;;;;;207.27;132.10;;;11.90;54.50;;;;;;4591918;19;20401;-76
2024/01/09 07:34:38;;;;;;;216.00;138.33;;;11.90;54.40;;;;;;4591589;19;20779;-75
2024/01/09 07:36:12;;;;;;;215.17;138.40;;;12.00;54.20;;;;;;4591862;19;20401;-75
2024/01/09 07:37:47;;;;;;;214.60;137.83;;;12.00;54.40;;;;;;4591677;19;20397;-75
2024/01/09 07:39:22;;;;;;;198.00;126.83;;;12.00;54.30;;;;;;4591660;19;20476;-75
2024/01/09 07:40:56;;;;;;;185.43;118.20;;;12.00;53.90;;;;;;4591512;19;20416;-75
2024/01/09 07:42:31;;;;;;;175.77;113.20;;;12.00;53.80;;;;;;4591854;19;20779;-76
2024/01/09 07:44:07;;;;;;;184.87;117.40;;;12.00;53.70;;;;;;4591899;19;20404;-75
2024/01/09 07:45:41;;;;;;;187.70;120.87;;;12.00;53.70;;;;;;4589514;19;21046;-75
2024/01/09 07:47:16;;;;;;;183.87;117.17;;;12.00;53.80;;;;;;4591122;19;20384;-76
2024/01/09 07:48:51;;;;;;;187.53;120.67;;;12.00;53.80;;;;;;4590564;19;20428;-76
2024/01/09 07:50:26;;;;;;;186.97;121.83;;;12.00;54.10;;;;;;4591421;19;20714;-75
2024/01/09 07:52:00;;;;;;;192.43;123.67;;;11.90;53.80;;;;;;4590000;19;20408;-75
2024/01/09 07:53:35;;;;;;;164.60;105.27;;;12.00;53.50;;;;;;4591399;19;20381;-78
2024/01/09 07:55:11;;;;;;;120.00;80.63;;;12.10;74.70;;;;;;4590736;19;20441;-77
2024/01/09 07:56:47;;;;;;;92.70;62.47;;;12.50;96.80;;;;;;4591370;19;20508;-78
2024/01/09 07:58:23;;;;;;;75.33;50.23;;;12.80;99.90;;;;;;4590007;19;20373;-78
2024/01/09 07:59:58;;;;;;;63.53;43.30;;;13.20;99.90;;;;;;4590947;19;20401;-79
2024/01/09 08:01:34;;;;;;;54.83;36.90;;;13.40;99.90;;;;;;4591225;19;20540;-78
2024/01/09 08:03:11;;;;;;;52.70;34.87;;;13.70;99.90;;;;;;4591362;19;20353;-78
2024/01/09 08:04:45;;;;;;;50.57;30.97;;;13.90;99.90;;;;;;4592843;19;20464;-78
2024/01/09 08:06:19;;;;;;;43.83;31.03;;;14.10;99.90;;;;;;4596071;19;20306;-78
2024/01/09 08:07:54;;;;;;;43.13;29.43;;;14.30;99.90;;;;;;4595644;19;20377;-78
2024/01/09 08:09:28;;;;;;;39.70;27.70;;;14.50;99.90;;;;;;4595145;19;20456;-79
2024/01/09 08:11:03;;;;;;;41.43;29.20;;;14.60;99.90;;;;;;4595633;19;20026;-78
2024/01/09 08:12:39;;;;;;;43.37;30.30;;;14.70;99.90;;;;;;4595795;19;20303;-78
2024/01/09 08:14:16;;;;;;;43.03;28.77;;;14.80;99.90;;;;;;4595644;19;20002;-78
2024/01/09 08:15:51;;;;;;;38.87;27.40;;;14.90;99.90;;;;;;4593983;19;20011;-78
2024/01/09 08:17:26;;;;;;;40.77;27.43;;;14.90;99.90;;;;;;4595642;19;20010;-78